createdAt,value
2019-04-05T00:02:14.453Z,8.47
2019-04-05T00:04:43.044Z,8.49
2019-04-05T00:07:11.696Z,8.50
2019-04-05T00:09:42.958Z,8.44
2019-04-05T00:12:13.003Z,8.46
2019-04-05T00:14:41.746Z,8.45
2019-04-05T00:17:10.247Z,8.44
2019-04-05T00:19:40.366Z,8.49
2019-04-05T00:22:09.397Z,8.50
2019-04-05T00:24:39.934Z,8.53
2019-04-05T00:27:09.576Z,8.54
2019-04-05T00:29:39.522Z,8.54
2019-04-05T00:32:08.276Z,8.54
2019-04-05T00:34:36.766Z,8.53
2019-04-05T00:37:07.102Z,8.40
2019-04-05T00:39:36.314Z,8.42
2019-04-05T00:42:06.140Z,8.32
2019-04-05T00:44:34.790Z,8.35
2019-04-05T00:47:03.466Z,8.38
2019-04-05T00:49:35.252Z,8.35
2019-04-05T00:52:03.911Z,8.40
2019-04-05T00:54:34.305Z,8.41
2019-04-05T00:57:05.057Z,8.44
2019-04-05T00:59:33.686Z,8.45
2019-04-05T01:02:02.318Z,8.49
2019-04-05T01:04:30.898Z,8.53
2019-04-05T01:06:59.399Z,8.57
2019-04-05T01:09:27.976Z,8.60
2019-04-05T01:11:56.534Z,8.61
2019-04-05T01:14:26.082Z,8.62
2019-04-05T01:16:54.855Z,8.62
2019-04-05T01:19:31.315Z,8.62
2019-04-05T01:22:02.864Z,8.63
2019-04-05T01:24:31.596Z,8.61
2019-04-05T01:27:00.736Z,8.62
2019-04-05T01:29:29.307Z,8.64
2019-04-05T01:31:58.216Z,8.62
2019-04-05T01:34:27.608Z,8.62
2019-04-05T01:36:56.332Z,8.63
2019-04-05T01:39:24.908Z,8.61
2019-04-05T01:41:53.493Z,8.62
2019-04-05T01:44:22.205Z,8.63
2019-04-05T01:46:52.253Z,8.64
2019-04-05T01:49:20.921Z,8.60
2019-04-05T01:51:49.857Z,8.64
2019-04-05T01:54:20.713Z,8.68
2019-04-05T01:56:51.136Z,8.71
2019-04-05T01:59:22.789Z,8.73
2019-04-05T02:01:51.295Z,8.72
2019-04-05T02:04:21.432Z,8.72
2019-04-05T02:06:50.091Z,8.74
2019-04-05T02:09:18.725Z,8.73
2019-04-05T02:11:47.352Z,8.73
2019-04-05T02:14:16.027Z,8.73
2019-04-05T02:16:47.279Z,8.72
2019-04-05T02:19:17.567Z,8.65
2019-04-05T02:21:46.128Z,8.57
2019-04-05T02:24:14.761Z,8.63
2019-04-05T02:26:43.693Z,8.67
2019-04-05T02:29:12.343Z,8.63
2019-04-05T02:31:40.914Z,8.64
2019-04-05T02:34:09.565Z,8.68
2019-04-05T02:36:38.216Z,8.67
2019-04-05T02:39:08.083Z,8.62
2019-04-05T02:41:37.910Z,8.64
2019-04-05T02:44:09.611Z,8.66
2019-04-05T02:46:41.407Z,8.60
2019-04-05T02:49:10.664Z,8.63
2019-04-05T02:51:41.074Z,8.62
2019-04-05T02:54:13.586Z,8.64
2019-04-05T02:56:43.504Z,8.61
2019-04-05T02:59:13.515Z,8.59
2019-04-05T03:01:44.418Z,8.60
2019-04-05T03:04:13.424Z,8.58
2019-04-05T03:06:42.896Z,8.55
2019-04-05T03:09:12.101Z,8.58
2019-04-05T03:11:43.451Z,8.53
2019-04-05T03:14:13.054Z,8.53
2019-04-05T03:16:44.643Z,8.53
2019-04-05T03:19:16.158Z,8.55
2019-04-05T03:21:47.701Z,8.52
2019-04-05T03:24:20.856Z,8.54
2019-04-05T03:26:52.370Z,8.52
2019-04-05T03:29:21.161Z,8.53
2019-04-05T03:31:49.778Z,8.54
2019-04-05T03:34:21.647Z,8.53
2019-04-05T03:36:51.899Z,8.53
2019-04-05T03:39:20.605Z,8.53
2019-04-05T03:41:50.973Z,8.49
2019-04-05T03:44:23.194Z,8.52
2019-04-05T03:46:57.070Z,8.52
2019-04-05T03:49:24.077Z,8.54
2019-04-05T03:51:52.704Z,8.56
2019-04-05T03:54:21.731Z,8.56
2019-04-05T03:56:50.551Z,8.57
2019-04-05T03:59:21.064Z,8.57
2019-04-05T04:01:49.595Z,8.57
2019-04-05T04:04:18.393Z,8.57
2019-04-05T04:06:47.102Z,8.54
2019-04-05T04:09:15.719Z,8.55
2019-04-05T04:11:44.322Z,8.57
2019-04-05T04:14:15.388Z,8.52
2019-04-05T04:16:44.005Z,8.54
2019-04-05T04:19:13.590Z,8.53
2019-04-05T04:21:47.825Z,8.56
2019-04-05T04:24:16.665Z,8.58
2019-04-05T04:26:46.697Z,8.58
2019-04-05T04:29:16.849Z,8.60
2019-04-05T04:31:45.667Z,8.61
2019-04-05T04:34:14.495Z,8.61
2019-04-05T04:36:43.033Z,8.63
2019-04-05T04:39:12.097Z,8.58
2019-04-05T04:41:42.177Z,8.61
2019-04-05T04:44:12.219Z,8.63
2019-04-05T04:46:41.017Z,8.62
2019-04-05T04:49:10.038Z,8.61
2019-04-05T04:51:39.416Z,8.54
2019-04-05T04:54:08.154Z,8.58
2019-04-05T04:56:38.456Z,8.60
2019-04-05T04:59:08.020Z,8.60
2019-04-05T05:01:37.016Z,8.62
2019-04-05T05:04:08.215Z,8.60
2019-04-05T05:06:36.098Z,8.63
2019-04-05T05:09:07.094Z,8.63
2019-04-05T05:11:36.395Z,8.63
2019-04-05T05:14:11.300Z,8.63
2019-04-05T05:16:39.838Z,8.66
2019-04-05T05:19:08.610Z,8.64
2019-04-05T05:21:37.321Z,8.66
2019-04-05T05:24:06.470Z,8.67
2019-04-05T05:26:35.153Z,8.64
2019-04-05T05:29:04.077Z,8.66
2019-04-05T05:31:32.626Z,8.67
2019-04-05T05:34:01.333Z,8.68
2019-04-05T05:36:29.929Z,8.68
2019-04-05T05:38:58.562Z,8.69
2019-04-05T05:41:27.123Z,8.66
2019-04-05T05:43:58.595Z,8.68
2019-04-05T05:46:27.697Z,8.70
2019-04-05T05:48:57.890Z,8.72
2019-04-05T05:51:26.452Z,8.73
2019-04-05T05:53:55.074Z,8.75
2019-04-05T05:56:23.584Z,8.76
2019-04-05T05:58:57.572Z,8.74
2019-04-05T06:01:23.811Z,8.70
2019-04-05T06:03:52.318Z,8.72
2019-04-05T06:06:23.816Z,8.72
2019-04-05T06:08:54.105Z,8.77
2019-04-05T06:11:22.666Z,8.77
2019-04-05T06:13:51.155Z,8.79
2019-04-05T06:16:19.692Z,8.77
2019-04-05T06:18:49.951Z,8.80
2019-04-05T06:21:18.877Z,8.84
2019-04-05T06:23:47.367Z,8.88
2019-04-05T06:26:15.910Z,8.90
2019-04-05T06:28:44.524Z,8.89
2019-04-05T06:31:14.558Z,8.91
2019-04-05T06:33:43.090Z,8.94
2019-04-05T06:36:14.452Z,8.97
2019-04-05T06:38:44.452Z,8.98
2019-04-05T06:41:12.940Z,9.00
2019-04-05T06:43:41.439Z,9.03
2019-04-05T06:46:09.991Z,9.04
2019-04-05T06:48:38.449Z,9.10
2019-04-05T06:51:07.007Z,9.12
2019-04-05T06:53:35.490Z,9.14
2019-04-05T06:56:04.080Z,9.15
2019-04-05T06:58:32.563Z,9.13
2019-04-05T07:01:01.179Z,9.10
2019-04-05T07:03:29.720Z,9.06
2019-04-05T07:05:58.247Z,9.07
2019-04-05T07:08:27.205Z,9.05
2019-04-05T07:10:55.695Z,9.11
2019-04-05T07:13:27.204Z,9.08
2019-04-05T07:15:54.533Z,9.12
2019-04-05T07:18:33.966Z,9.14
2019-04-05T07:20:58.024Z,9.20
2019-04-05T07:23:29.436Z,9.20
2019-04-05T07:25:57.911Z,9.20
2019-04-05T07:28:26.506Z,9.24
2019-04-05T07:30:54.990Z,9.27
2019-04-05T07:33:24.784Z,9.28
2019-04-05T07:35:53.475Z,9.30
2019-04-05T07:38:22.345Z,9.31
2019-04-05T07:40:51.053Z,9.36
2019-04-05T07:43:21.198Z,9.34
2019-04-05T07:45:49.984Z,9.35
2019-04-05T07:48:18.717Z,9.39
2019-04-05T07:50:47.433Z,9.39
2019-04-05T07:53:16.199Z,9.38
2019-04-05T07:55:44.889Z,9.42
2019-04-05T07:58:13.546Z,9.44
2019-04-05T08:00:45.394Z,9.48
2019-04-05T08:03:14.063Z,9.50
2019-04-05T08:05:43.413Z,9.50
2019-04-05T08:08:15.025Z,9.49
2019-04-05T08:10:44.636Z,9.48
2019-04-05T08:13:17.793Z,9.53
2019-04-05T08:15:47.096Z,9.54
2019-04-05T08:18:15.842Z,9.58
2019-04-05T08:20:47.259Z,9.60
2019-04-05T08:23:15.935Z,9.64
2019-04-05T08:25:47.755Z,9.66
2019-04-05T08:28:16.495Z,9.67
2019-04-05T08:30:45.270Z,9.71
2019-04-05T08:33:14.011Z,9.74
2019-04-05T08:35:42.709Z,9.76
2019-04-05T08:38:11.621Z,9.80
2019-04-05T08:40:43.417Z,9.82
2019-04-05T08:43:12.084Z,9.81
2019-04-05T08:45:43.086Z,9.84
2019-04-05T08:48:11.754Z,9.86
2019-04-05T08:50:40.453Z,9.91
2019-04-05T08:53:15.442Z,9.92
2019-04-05T08:55:44.164Z,9.90
2019-04-05T08:58:13.016Z,9.94
2019-04-05T09:00:50.612Z,9.93
2019-04-05T09:03:19.852Z,9.95
2019-04-05T09:05:48.563Z,10.00
2019-04-05T09:08:24.861Z,10.04
2019-04-05T09:10:54.692Z,10.14
2019-04-05T09:13:23.533Z,10.30
2019-04-05T09:15:54.986Z,10.41
2019-04-05T09:18:23.660Z,10.53
2019-04-05T09:20:52.367Z,10.58
2019-04-05T09:23:21.319Z,10.70
2019-04-05T09:25:53.585Z,10.67
2019-04-05T09:28:24.844Z,10.66
2019-04-05T09:30:53.970Z,10.70
2019-04-05T09:33:22.697Z,10.70
2019-04-05T09:35:51.442Z,10.69
2019-04-05T09:38:20.296Z,10.72
2019-04-05T09:40:50.432Z,10.64
2019-04-05T09:43:19.202Z,10.78
2019-04-05T09:45:48.056Z,10.84
2019-04-05T09:48:16.765Z,10.83
2019-04-05T09:50:45.514Z,10.88
2019-04-05T09:53:14.273Z,10.96
2019-04-05T09:55:45.716Z,10.93
2019-04-05T09:58:14.480Z,10.91
2019-04-05T10:00:45.355Z,10.89
2019-04-05T10:03:14.129Z,10.85
2019-04-05T10:05:44.423Z,10.86
2019-04-05T10:08:13.221Z,10.90
2019-04-05T10:10:41.903Z,10.91
2019-04-05T10:13:10.693Z,10.99
2019-04-05T10:15:39.393Z,11.11
2019-04-05T10:18:08.323Z,11.21
2019-04-05T10:20:38.963Z,11.38
2019-04-05T10:23:10.524Z,11.48
2019-04-05T10:25:39.263Z,11.57
2019-04-05T10:28:08.049Z,11.55
2019-04-05T10:30:38.122Z,11.64
2019-04-05T10:33:06.876Z,11.73
2019-04-05T10:35:35.663Z,11.67
2019-04-05T10:38:04.561Z,11.71
2019-04-05T10:40:33.276Z,11.77
2019-04-05T10:43:03.489Z,11.80
2019-04-05T10:45:32.228Z,11.72
2019-04-05T10:48:01.008Z,11.71
2019-04-05T10:50:29.686Z,11.80
2019-04-05T10:52:58.453Z,11.80
2019-04-05T10:55:27.132Z,11.78
2019-04-05T10:57:55.977Z,11.67
2019-04-05T11:00:25.038Z,11.70
2019-04-05T11:02:53.752Z,11.63
2019-04-05T11:05:22.512Z,11.66
2019-04-05T11:07:51.201Z,11.70
2019-04-05T11:10:20.600Z,11.67
2019-04-05T11:12:50.097Z,11.71
2019-04-05T11:15:21.937Z,11.68
2019-04-05T11:17:50.629Z,11.70
2019-04-05T11:20:21.560Z,11.91
2019-04-05T11:22:51.285Z,12.09
2019-04-05T11:25:21.453Z,12.29
2019-04-05T11:27:50.106Z,12.48
2019-04-05T11:30:21.762Z,12.68
2019-04-05T11:32:50.509Z,12.77
2019-04-05T11:35:19.272Z,12.88
2019-04-05T11:37:50.761Z,13.01
2019-04-05T11:40:18.394Z,13.03
2019-04-05T11:42:48.647Z,13.02
2019-04-05T11:45:18.818Z,13.00
2019-04-05T11:47:47.906Z,12.98
2019-04-05T11:50:19.454Z,13.02
2019-04-05T11:52:47.820Z,12.99
2019-04-05T11:55:18.512Z,13.03
2019-04-05T11:57:49.241Z,13.10
2019-04-05T12:00:22.905Z,13.07
2019-04-05T12:03:00.948Z,13.27
2019-04-05T12:05:29.812Z,13.09
2019-04-05T12:08:01.838Z,13.23
2019-04-05T12:10:32.021Z,13.27
2019-04-05T12:12:59.911Z,13.36
2019-04-05T12:15:28.621Z,13.29
2019-04-05T12:17:59.842Z,13.27
2019-04-05T12:20:28.538Z,13.28
2019-04-05T12:22:57.221Z,13.09
2019-04-05T12:25:25.910Z,13.17
2019-04-05T12:28:05.707Z,13.18
2019-04-05T12:30:26.246Z,13.20
2019-04-05T12:32:55.003Z,13.13
2019-04-05T12:35:26.686Z,13.21
2019-04-05T12:37:56.154Z,13.11
2019-04-05T12:40:24.928Z,13.21
2019-04-05T12:42:54.177Z,13.29
2019-04-05T12:45:24.659Z,13.33
2019-04-05T12:47:53.446Z,13.38
2019-04-05T12:50:22.230Z,13.38
2019-04-05T12:52:50.989Z,13.34
2019-04-05T12:55:23.817Z,13.32
2019-04-05T12:57:50.345Z,13.33
2019-04-05T13:00:19.855Z,13.26
2019-04-05T13:02:50.289Z,13.23
2019-04-05T13:05:21.346Z,13.16
2019-04-05T13:07:50.697Z,13.25
2019-04-05T13:10:20.010Z,13.24
2019-04-05T13:12:51.622Z,13.25
2019-04-05T13:15:19.752Z,13.26
2019-04-05T13:17:48.528Z,13.27
2019-04-05T13:20:19.886Z,13.18
2019-04-05T13:22:48.675Z,13.19
2019-04-05T13:25:19.041Z,13.06
2019-04-05T13:27:54.121Z,12.95
2019-04-05T13:30:22.822Z,13.06
2019-04-05T13:32:53.408Z,13.31
2019-04-05T13:35:22.131Z,13.43
2019-04-05T13:37:50.950Z,13.52
2019-04-05T13:40:19.908Z,13.25
2019-04-05T13:42:48.881Z,12.99
2019-04-05T13:45:17.613Z,12.97
2019-04-05T13:47:46.423Z,12.82
2019-04-05T13:50:15.253Z,12.81
2019-04-05T13:52:43.945Z,12.87
2019-04-05T13:55:14.900Z,12.79
2019-04-05T13:57:43.675Z,12.73
2019-04-05T14:00:17.514Z,12.63
2019-04-05T14:02:44.677Z,12.70
2019-04-05T14:05:13.523Z,12.66
2019-04-05T14:07:42.193Z,12.66
2019-04-05T14:10:12.590Z,12.66
2019-04-05T14:12:41.431Z,12.53
2019-04-05T14:15:51.567Z,12.49
2019-04-05T14:18:20.850Z,12.46
2019-04-05T14:20:50.607Z,12.35
2019-04-05T14:23:23.045Z,12.40
2019-04-05T14:25:49.943Z,12.39
2019-04-05T14:28:18.678Z,12.34
2019-04-05T14:30:47.502Z,12.39
2019-04-05T14:33:16.269Z,12.40
2019-04-05T14:35:45.309Z,12.41
2019-04-05T14:38:16.334Z,12.48
2019-04-05T14:40:47.626Z,12.47
2019-04-05T14:43:16.401Z,12.49
2019-04-05T14:45:45.247Z,12.44
2019-04-05T14:48:14.035Z,12.45
2019-04-05T14:50:42.811Z,12.37
2019-04-05T14:53:11.490Z,12.36
2019-04-05T14:55:40.228Z,12.39
2019-04-05T14:58:10.856Z,12.37
2019-04-05T15:00:39.711Z,12.31
2019-04-05T15:03:08.413Z,12.36
2019-04-05T15:05:37.074Z,12.34
2019-04-05T15:08:05.778Z,12.37
2019-04-05T15:10:37.445Z,12.40
2019-04-05T15:13:12.182Z,12.28
2019-04-05T15:15:42.855Z,12.34
2019-04-05T15:18:11.550Z,12.35
2019-04-05T15:20:40.325Z,12.38
2019-04-05T15:23:09.785Z,12.41
2019-04-05T15:25:38.582Z,12.44
2019-04-05T15:28:10.710Z,12.38
2019-04-05T15:30:39.416Z,12.42
2019-04-05T15:33:08.082Z,12.48
2019-04-05T15:35:36.856Z,12.45
2019-04-05T15:38:05.644Z,12.43
2019-04-05T15:40:34.407Z,12.39
2019-04-05T15:43:07.004Z,12.36
2019-04-05T15:45:37.166Z,12.33
2019-04-05T15:48:06.403Z,12.27
2019-04-05T15:50:35.120Z,12.18
2019-04-05T15:53:07.034Z,12.14
2019-04-05T15:55:35.631Z,12.10
2019-04-05T15:58:04.706Z,12.02
2019-04-05T16:00:44.183Z,12.01
2019-04-05T16:03:14.697Z,11.93
2019-04-05T16:05:44.558Z,11.96
2019-04-05T16:08:14.846Z,11.94
2019-04-05T16:10:45.668Z,11.91
2019-04-05T16:13:14.413Z,11.82
2019-04-05T16:15:44.033Z,11.76
2019-04-05T16:18:12.939Z,11.75
2019-04-05T16:20:44.194Z,11.71
2019-04-05T16:23:12.213Z,11.63
2019-04-05T16:25:40.967Z,11.55
2019-04-05T16:28:13.714Z,11.51
2019-04-05T16:30:45.466Z,11.51
2019-04-05T16:33:14.138Z,11.48
2019-04-05T16:35:42.834Z,11.42
2019-04-05T16:38:11.497Z,11.42
2019-04-05T16:40:40.239Z,11.43
2019-04-05T16:43:10.433Z,11.38
2019-04-05T16:45:39.085Z,11.40
2019-04-05T16:48:07.854Z,11.34
2019-04-05T16:50:36.746Z,11.33
2019-04-05T16:53:05.451Z,11.30
2019-04-05T16:55:34.117Z,11.30
2019-04-05T16:58:02.815Z,11.26
2019-04-05T17:00:33.143Z,11.26
2019-04-05T17:03:01.860Z,11.21
2019-04-05T17:05:30.542Z,11.19
2019-04-05T17:07:59.216Z,11.21
2019-04-05T17:10:29.550Z,11.22
2019-04-05T17:13:02.554Z,11.22
2019-04-05T17:15:31.243Z,11.21
2019-04-05T17:18:00.092Z,11.18
2019-04-05T17:20:28.809Z,11.15
2019-04-05T17:22:58.816Z,11.14
2019-04-05T17:25:34.364Z,11.13
2019-04-05T17:28:00.133Z,11.09
2019-04-05T17:30:32.112Z,11.08
2019-04-05T17:33:03.640Z,11.07
2019-04-05T17:35:32.305Z,11.07
2019-04-05T17:38:01.073Z,11.07
2019-04-05T17:40:30.043Z,11.07
2019-04-05T17:43:02.273Z,11.04
2019-04-05T17:45:31.589Z,10.97
2019-04-05T17:48:00.311Z,10.96
2019-04-05T17:50:31.379Z,10.96
2019-04-05T17:53:11.259Z,10.93
2019-04-05T17:55:30.540Z,10.91
2019-04-05T17:58:00.973Z,10.91
2019-04-05T18:00:31.604Z,10.85
2019-04-05T18:03:00.275Z,10.83
2019-04-05T18:05:28.980Z,10.79
2019-04-05T18:08:00.880Z,10.81
2019-04-05T18:10:29.616Z,10.81
2019-04-05T18:13:06.144Z,10.78
2019-04-05T18:15:34.861Z,10.80
2019-04-05T18:18:03.597Z,10.75
2019-04-05T18:20:32.309Z,10.74
2019-04-05T18:23:01.254Z,10.74
2019-04-05T18:25:30.060Z,10.69
2019-04-05T18:27:58.874Z,10.64
2019-04-05T18:30:27.696Z,10.64
2019-04-05T18:32:56.473Z,10.62
2019-04-05T18:35:26.873Z,10.58
2019-04-05T18:37:55.618Z,10.60
2019-04-05T18:40:24.408Z,10.53
2019-04-05T18:42:55.905Z,10.51
2019-04-05T18:45:25.885Z,10.51
2019-04-05T18:47:54.993Z,10.47
2019-04-05T18:50:23.672Z,10.43
2019-04-05T18:52:52.960Z,10.48
2019-04-05T18:55:21.619Z,10.52
2019-04-05T18:57:50.655Z,10.50
2019-04-05T19:00:19.418Z,10.46
2019-04-05T19:02:49.588Z,10.46
2019-04-05T19:05:18.323Z,10.50
2019-04-05T19:07:47.078Z,10.45
2019-04-05T19:10:15.844Z,10.44
2019-04-05T19:12:46.192Z,10.40
2019-04-05T19:15:15.366Z,10.38
2019-04-05T19:17:44.127Z,10.32
2019-04-05T19:20:13.037Z,10.31
2019-04-05T19:22:41.658Z,10.33
2019-04-05T19:25:10.545Z,10.33
2019-04-05T19:27:39.305Z,10.27
2019-04-05T19:50:20.414Z,10.05
2019-04-05T19:52:53.129Z,10.07
2019-04-05T19:55:26.611Z,10.10
2019-04-05T19:57:55.360Z,10.03
2019-04-05T20:00:24.166Z,10.00
2019-04-05T20:02:52.960Z,10.03
2019-04-05T20:05:21.763Z,10.02
2019-04-05T20:07:50.449Z,10.02
2019-04-05T20:10:20.648Z,10.00
2019-04-05T20:12:49.368Z,10.00
2019-04-05T20:15:19.546Z,9.98
2019-04-05T20:17:48.247Z,10.00
2019-04-05T20:20:17.809Z,10.03
2019-04-05T20:22:48.009Z,10.05
2019-04-05T20:25:18.266Z,10.05
2019-04-05T20:27:47.032Z,10.09
2019-04-05T20:30:28.950Z,10.11
2019-04-05T20:32:59.529Z,10.10
2019-04-05T20:35:28.222Z,10.06
2019-04-05T20:37:56.936Z,10.05
2019-04-05T20:40:25.708Z,10.00
2019-04-05T20:42:54.820Z,9.98
2019-04-05T20:45:23.954Z,9.98
2019-04-05T20:47:53.849Z,9.96
2019-04-05T20:50:22.560Z,9.98
2019-04-05T20:52:53.402Z,9.99
2019-04-05T20:55:22.078Z,9.99
2019-04-05T20:57:50.785Z,9.96
2019-04-05T21:00:19.622Z,9.98
2019-04-05T21:02:48.648Z,9.97
2019-04-05T21:05:25.646Z,9.95
2019-04-05T21:07:51.090Z,9.96
2019-04-05T21:10:20.371Z,9.96
2019-04-05T21:12:51.788Z,9.95
2019-04-05T21:15:23.468Z,9.96
2019-04-05T21:17:53.791Z,9.97
2019-04-05T21:20:22.537Z,9.97
2019-04-05T21:22:55.619Z,9.96
2019-04-05T21:25:24.433Z,9.95
2019-04-05T21:27:53.192Z,9.92
2019-04-05T21:30:21.908Z,9.88
2019-04-05T21:32:50.674Z,9.84
2019-04-05T21:35:19.399Z,9.78
2019-04-05T21:37:48.146Z,9.76
2019-04-05T21:40:17.474Z,9.72
2019-04-05T21:42:46.250Z,9.68
2019-04-05T21:45:14.986Z,9.61
2019-04-05T21:47:43.673Z,9.54
2019-04-05T21:50:12.511Z,9.50
2019-04-05T21:52:41.215Z,9.42
2019-04-05T21:55:10.172Z,9.36
2019-04-05T21:57:38.926Z,9.29
2019-04-05T22:00:10.650Z,9.25
2019-04-05T22:02:41.662Z,9.19
2019-04-05T22:05:11.023Z,9.15
2019-04-05T22:07:39.715Z,9.10
2019-04-05T22:10:09.954Z,9.06
2019-04-05T22:12:42.356Z,9.02
2019-04-05T22:15:11.130Z,8.97
2019-04-05T22:17:39.906Z,8.92
2019-04-05T22:20:09.137Z,8.88
2019-04-05T22:22:37.882Z,8.86
2019-04-05T22:25:07.809Z,8.82
2019-04-05T22:27:36.887Z,8.77
2019-04-05T22:30:09.238Z,8.74
2019-04-05T22:32:39.882Z,8.72
2019-04-05T22:35:11.651Z,8.67
2019-04-05T22:37:40.449Z,8.62
2019-04-05T22:40:11.622Z,8.59
2019-04-05T22:42:40.353Z,8.57
2019-04-05T22:45:09.264Z,8.54
2019-04-05T22:47:39.701Z,8.51
2019-04-05T22:50:10.145Z,8.48
2019-04-05T22:52:38.976Z,8.47
2019-04-05T22:55:11.410Z,8.46
2019-04-05T22:57:39.699Z,8.44
2019-04-05T23:00:09.051Z,8.44
2019-04-05T23:02:39.451Z,8.42
2019-04-05T23:05:11.413Z,8.42
2019-04-05T23:07:40.209Z,8.40
2019-04-05T23:10:09.825Z,8.38
2019-04-05T23:12:38.579Z,8.33
2019-04-05T23:15:12.067Z,8.32
2019-04-05T23:17:40.757Z,8.26
2019-04-05T23:20:10.482Z,8.19
2019-04-05T23:22:40.109Z,8.16
2019-04-05T23:25:08.927Z,8.07
2019-04-05T23:27:37.676Z,7.97
2019-04-05T23:30:07.575Z,7.97
2019-04-05T23:32:36.267Z,7.91
2019-04-05T23:35:06.920Z,7.88
2019-04-05T23:37:35.614Z,7.83
2019-04-05T23:40:06.283Z,7.81
2019-04-05T23:42:35.039Z,7.76
2019-04-05T23:45:04.738Z,7.74
2019-04-05T23:47:33.429Z,7.70
2019-04-05T23:50:03.337Z,7.69
2019-04-05T23:52:32.061Z,7.67
2019-04-05T23:55:00.857Z,7.63
2019-04-05T23:57:29.653Z,7.62
2019-04-05T23:59:58.425Z,7.61
